sensor_id;sensor_type;location;lat;lon;timestamp;temperature;humidity
48376;DHT22;34178;50.904;11.560;2022-09-27T00:00:42;12.40;99.90
48376;DHT22;34178;50.904;11.560;2022-09-27T00:03:09;12.30;99.90
48376;DHT22;34178;50.904;11.560;2022-09-27T00:05:36;12.30;99.90
48376;DHT22;34178;50.904;11.560;2022-09-27T00:08:01;12.30;99.90
48376;DHT22;34178;50.904;11.560;2022-09-27T00:10:27;12.20;99.90
48376;DHT22;34178;50.904;11.560;2022-09-27T00:12:53;12.10;99.90
48376;DHT22;34178;50.904;11.560;2022-09-27T00:15:19;12.20;99.90
48376;DHT22;34178;50.904;11.560;2022-09-27T00:17:45;12.20;99.90
48376;DHT22;34178;50.904;11.560;2022-09-27T00:20:11;12.20;99.90
48376;DHT22;34178;50.904;11.560;2022-09-27T00:22:38;12.20;99.90
48376;DHT22;34178;50.904;11.560;2022-09-27T00:25:03;12.20;99.90
48376;DHT22;34178;50.904;11.560;2022-09-27T00:27:32;12.20;99.90
48376;DHT22;34178;50.904;11.560;2022-09-27T00:29:57;12.20;99.90
48376;DHT22;34178;50.904;11.560;2022-09-27T00:32:23;12.30;99.90
48376;DHT22;34178;50.904;11.560;2022-09-27T00:34:49;12.20;99.90
48376;DHT22;34178;50.904;11.560;2022-09-27T00:37:14;12.20;99.90
48376;DHT22;34178;50.904;11.560;2022-09-27T00:39:40;12.20;99.90
48376;DHT22;34178;50.904;11.560;2022-09-27T00:42:12;12.10;99.90
48376;DHT22;34178;50.904;11.560;2022-09-27T00:49:42;12.10;99.90
48376;DHT22;34178;50.904;11.560;2022-09-27T00:52:17;12.10;99.90
48376;DHT22;34178;50.904;11.560;2022-09-27T00:54:49;12.10;99.90
48376;DHT22;34178;50.904;11.560;2022-09-27T00:57:17;12.10;99.90
48376;DHT22;34178;50.904;11.560;2022-09-27T01:00:05;12.00;99.90
48376;DHT22;34178;50.904;11.560;2022-09-27T01:02:31;12.00;99.90
48376;DHT22;34178;50.904;11.560;2022-09-27T01:04:57;12.00;99.90
48376;DHT22;34178;50.904;11.560;2022-09-27T01:07:24;12.00;99.90
48376;DHT22;34178;50.904;11.560;2022-09-27T01:09:49;12.00;99.90
48376;DHT22;34178;50.904;11.560;2022-09-27T01:15:17;11.90;99.90
48376;DHT22;34178;50.904;11.560;2022-09-27T01:17:56;11.90;99.90
48376;DHT22;34178;50.904;11.560;2022-09-27T01:36:48;11.80;99.90
48376;DHT22;34178;50.904;11.560;2022-09-27T01:47:39;11.70;99.90
48376;DHT22;34178;50.904;11.560;2022-09-27T01:50:13;11.80;99.90
48376;DHT22;34178;50.904;11.560;2022-09-27T01:55:14;11.70;99.90
48376;DHT22;34178;50.904;11.560;2022-09-27T01:57:46;11.70;99.90
48376;DHT22;34178;50.904;11.560;2022-09-27T02:00:13;11.70;99.90
48376;DHT22;34178;50.904;11.560;2022-09-27T02:05:11;11.70;99.90
48376;DHT22;34178;50.904;11.560;2022-09-27T02:07:56;11.70;99.90
48376;DHT22;34178;50.904;11.560;2022-09-27T02:10:33;11.70;99.90
48376;DHT22;34178;50.904;11.560;2022-09-27T02:15:40;11.70;99.90
48376;DHT22;34178;50.904;11.560;2022-09-27T02:18:15;11.70;99.90
48376;DHT22;34178;50.904;11.560;2022-09-27T02:20:55;11.50;99.90
48376;DHT22;34178;50.904;11.560;2022-09-27T02:26:00;11.50;99.90
48376;DHT22;34178;50.904;11.560;2022-09-27T02:28:31;11.50;99.90
48376;DHT22;34178;50.904;11.560;2022-09-27T02:30:57;11.50;99.90
48376;DHT22;34178;50.904;11.560;2022-09-27T02:33:47;11.50;99.90
48376;DHT22;34178;50.904;11.560;2022-09-27T02:36:14;11.50;99.90
48376;DHT22;34178;50.904;11.560;2022-09-27T02:38:40;11.50;99.90
48376;DHT22;34178;50.904;11.560;2022-09-27T02:41:18;11.50;99.90
48376;DHT22;34178;50.904;11.560;2022-09-27T02:43:47;11.50;99.90
48376;DHT22;34178;50.904;11.560;2022-09-27T02:54:51;11.40;99.90
48376;DHT22;34178;50.904;11.560;2022-09-27T03:05:29;11.30;99.90
48376;DHT22;34178;50.904;11.560;2022-09-27T03:07:56;11.30;99.90
48376;DHT22;34178;50.904;11.560;2022-09-27T03:10:27;11.40;99.90
48376;DHT22;34178;50.904;11.560;2022-09-27T03:12:53;11.40;99.90
48376;DHT22;34178;50.904;11.560;2022-09-27T03:15:20;11.40;99.90
48376;DHT22;34178;50.904;11.560;2022-09-27T03:17:45;11.40;99.90
48376;DHT22;34178;50.904;11.560;2022-09-27T03:20:11;11.40;99.90
48376;DHT22;34178;50.904;11.560;2022-09-27T03:22:37;11.40;99.90
48376;DHT22;34178;50.904;11.560;2022-09-27T03:25:04;11.30;99.90
48376;DHT22;34178;50.904;11.560;2022-09-27T03:27:30;11.30;99.90
48376;DHT22;34178;50.904;11.560;2022-09-27T03:29:56;11.30;99.90
48376;DHT22;34178;50.904;11.560;2022-09-27T03:32:22;11.30;99.90
48376;DHT22;34178;50.904;11.560;2022-09-27T03:34:48;11.30;99.90
48376;DHT22;34178;50.904;11.560;2022-09-27T03:37:13;11.30;99.90
48376;DHT22;34178;50.904;11.560;2022-09-27T03:39:39;11.20;99.90
48376;DHT22;34178;50.904;11.560;2022-09-27T03:42:05;11.20;99.90
48376;DHT22;34178;50.904;11.560;2022-09-27T03:44:30;11.10;99.90
48376;DHT22;34178;50.904;11.560;2022-09-27T03:46:57;11.10;99.90
48376;DHT22;34178;50.904;11.560;2022-09-27T03:49:23;11.10;99.90
48376;DHT22;34178;50.904;11.560;2022-09-27T03:51:49;11.10;99.90
48376;DHT22;34178;50.904;11.560;2022-09-27T03:54:14;11.00;99.90
48376;DHT22;34178;50.904;11.560;2022-09-27T03:56:40;11.00;99.90
48376;DHT22;34178;50.904;11.560;2022-09-27T03:59:06;11.00;99.90
48376;DHT22;34178;50.904;11.560;2022-09-27T04:01:31;11.00;99.90
48376;DHT22;34178;50.904;11.560;2022-09-27T04:03:59;11.00;99.90
48376;DHT22;34178;50.904;11.560;2022-09-27T04:06:25;11.00;99.90
48376;DHT22;34178;50.904;11.560;2022-09-27T04:08:51;10.90;99.90
48376;DHT22;34178;50.904;11.560;2022-09-27T04:11:17;10.90;99.90
48376;DHT22;34178;50.904;11.560;2022-09-27T04:13:43;11.00;99.90
48376;DHT22;34178;50.904;11.560;2022-09-27T04:16:09;11.00;99.90
48376;DHT22;34178;50.904;11.560;2022-09-27T04:18:35;10.90;99.90
48376;DHT22;34178;50.904;11.560;2022-09-27T04:21:00;10.90;99.90
48376;DHT22;34178;50.904;11.560;2022-09-27T04:23:26;10.90;99.90
48376;DHT22;34178;50.904;11.560;2022-09-27T04:25:52;11.00;99.90
48376;DHT22;34178;50.904;11.560;2022-09-27T04:28:18;11.00;99.90
48376;DHT22;34178;50.904;11.560;2022-09-27T04:30:45;11.00;99.90
48376;DHT22;34178;50.904;11.560;2022-09-27T04:33:11;10.90;99.90
48376;DHT22;34178;50.904;11.560;2022-09-27T04:35:36;10.90;99.90
48376;DHT22;34178;50.904;11.560;2022-09-27T04:38:21;11.00;99.90
48376;DHT22;34178;50.904;11.560;2022-09-27T04:40:49;10.90;99.90
48376;DHT22;34178;50.904;11.560;2022-09-27T04:43:15;10.90;99.90
48376;DHT22;34178;50.904;11.560;2022-09-27T04:45:42;10.90;99.90
48376;DHT22;34178;50.904;11.560;2022-09-27T04:48:08;10.90;99.90
48376;DHT22;34178;50.904;11.560;2022-09-27T04:50:34;10.90;99.90
48376;DHT22;34178;50.904;11.560;2022-09-27T04:53:00;11.00;99.90
48376;DHT22;34178;50.904;11.560;2022-09-27T04:55:25;10.90;99.90
48376;DHT22;34178;50.904;11.560;2022-09-27T04:57:52;11.00;99.90
48376;DHT22;34178;50.904;11.560;2022-09-27T05:00:18;11.00;99.90
48376;DHT22;34178;50.904;11.560;2022-09-27T05:02:44;11.00;99.90
48376;DHT22;34178;50.904;11.560;2022-09-27T05:05:11;11.00;99.90
48376;DHT22;34178;50.904;11.560;2022-09-27T05:07:37;11.00;99.90
48376;DHT22;34178;50.904;11.560;2022-09-27T05:10:04;11.00;99.90
48376;DHT22;34178;50.904;11.560;2022-09-27T05:12:29;11.00;99.90
48376;DHT22;34178;50.904;11.560;2022-09-27T05:14:55;11.00;99.90
48376;DHT22;34178;50.904;11.560;2022-09-27T05:17:21;11.00;99.90
48376;DHT22;34178;50.904;11.560;2022-09-27T05:19:48;11.00;99.90
48376;DHT22;34178;50.904;11.560;2022-09-27T05:22:14;11.10;99.90
48376;DHT22;34178;50.904;11.560;2022-09-27T05:24:40;11.10;99.90
48376;DHT22;34178;50.904;11.560;2022-09-27T05:27:07;11.10;99.90
48376;DHT22;34178;50.904;11.560;2022-09-27T05:29:34;11.10;99.90
48376;DHT22;34178;50.904;11.560;2022-09-27T05:32:01;11.10;99.90
48376;DHT22;34178;50.904;11.560;2022-09-27T05:34:27;11.00;99.90
48376;DHT22;34178;50.904;11.560;2022-09-27T05:36:52;11.00;99.90
48376;DHT22;34178;50.904;11.560;2022-09-27T05:39:18;11.00;99.90
48376;DHT22;34178;50.904;11.560;2022-09-27T05:41:44;11.00;99.90
48376;DHT22;34178;50.904;11.560;2022-09-27T05:44:10;11.00;99.90
48376;DHT22;34178;50.904;11.560;2022-09-27T05:46:38;11.00;99.90
48376;DHT22;34178;50.904;11.560;2022-09-27T05:49:04;11.00;99.90
48376;DHT22;34178;50.904;11.560;2022-09-27T05:51:30;11.00;99.90
48376;DHT22;34178;50.904;11.560;2022-09-27T05:53:56;11.00;99.90
48376;DHT22;34178;50.904;11.560;2022-09-27T05:56:22;11.10;99.90
48376;DHT22;34178;50.904;11.560;2022-09-27T05:58:49;11.30;99.90
48376;DHT22;34178;50.904;11.560;2022-09-27T06:01:15;11.30;99.90
48376;DHT22;34178;50.904;11.560;2022-09-27T06:03:41;11.40;99.90
48376;DHT22;34178;50.904;11.560;2022-09-27T06:06:07;11.50;99.90
48376;DHT22;34178;50.904;11.560;2022-09-27T06:08:36;11.60;99.90
48376;DHT22;34178;50.904;11.560;2022-09-27T06:11:04;11.60;99.90
48376;DHT22;34178;50.904;11.560;2022-09-27T06:13:30;11.70;99.90
48376;DHT22;34178;50.904;11.560;2022-09-27T06:15:57;11.60;99.90
48376;DHT22;34178;50.904;11.560;2022-09-27T06:18:23;11.60;99.90
48376;DHT22;34178;50.904;11.560;2022-09-27T06:20:49;11.70;99.90
48376;DHT22;34178;50.904;11.560;2022-09-27T06:23:20;11.70;99.90
48376;DHT22;34178;50.904;11.560;2022-09-27T06:25:47;11.70;99.90
48376;DHT22;34178;50.904;11.560;2022-09-27T06:28:13;11.70;99.90
48376;DHT22;34178;50.904;11.560;2022-09-27T06:30:41;11.80;99.90
48376;DHT22;34178;50.904;11.560;2022-09-27T06:33:10;12.00;99.90
48376;DHT22;34178;50.904;11.560;2022-09-27T06:35:36;12.00;99.90
48376;DHT22;34178;50.904;11.560;2022-09-27T06:38:04;12.00;99.90
48376;DHT22;34178;50.904;11.560;2022-09-27T06:40:32;12.20;99.90
48376;DHT22;34178;50.904;11.560;2022-09-27T06:43:09;12.10;99.90
48376;DHT22;34178;50.904;11.560;2022-09-27T06:45:39;12.20;99.90
48376;DHT22;34178;50.904;11.560;2022-09-27T06:48:06;12.30;99.90
48376;DHT22;34178;50.904;11.560;2022-09-27T06:50:34;12.30;99.90
48376;DHT22;34178;50.904;11.560;2022-09-27T06:53:03;12.10;99.90
48376;DHT22;34178;50.904;11.560;2022-09-27T06:55:30;12.10;99.90
48376;DHT22;34178;50.904;11.560;2022-09-27T06:57:57;12.00;99.90
48376;DHT22;34178;50.904;11.560;2022-09-27T07:00:42;11.90;99.90
48376;DHT22;34178;50.904;11.560;2022-09-27T07:03:11;11.60;99.90
48376;DHT22;34178;50.904;11.560;2022-09-27T07:05:38;11.50;99.90
48376;DHT22;34178;50.904;11.560;2022-09-27T07:08:05;11.30;99.90
48376;DHT22;34178;50.904;11.560;2022-09-27T07:10:33;11.30;99.90
48376;DHT22;34178;50.904;11.560;2022-09-27T07:13:07;11.30;99.90
48376;DHT22;34178;50.904;11.560;2022-09-27T07:15:34;11.30;99.90
48376;DHT22;34178;50.904;11.560;2022-09-27T07:18:04;11.30;99.90
48376;DHT22;34178;50.904;11.560;2022-09-27T07:20:30;11.30;99.90
48376;DHT22;34178;50.904;11.560;2022-09-27T07:22:57;11.30;99.90
48376;DHT22;34178;50.904;11.560;2022-09-27T07:25:24;11.40;99.90
48376;DHT22;34178;50.904;11.560;2022-09-27T07:27:50;11.40;99.90
48376;DHT22;34178;50.904;11.560;2022-09-27T07:30:18;11.50;99.90
48376;DHT22;34178;50.904;11.560;2022-09-27T07:32:44;11.50;99.90
48376;DHT22;34178;50.904;11.560;2022-09-27T07:35:10;11.50;99.90
48376;DHT22;34178;50.904;11.560;2022-09-27T07:37:37;11.70;99.90
48376;DHT22;34178;50.904;11.560;2022-09-27T07:40:05;11.80;99.90
48376;DHT22;34178;50.904;11.560;2022-09-27T07:42:32;11.90;99.90
48376;DHT22;34178;50.904;11.560;2022-09-27T07:44:58;11.80;99.90
48376;DHT22;34178;50.904;11.560;2022-09-27T07:47:24;11.70;99.90
48376;DHT22;34178;50.904;11.560;2022-09-27T07:49:51;11.50;99.90
48376;DHT22;34178;50.904;11.560;2022-09-27T07:52:18;11.50;99.90
48376;DHT22;34178;50.904;11.560;2022-09-27T07:54:47;11.40;99.90
48376;DHT22;34178;50.904;11.560;2022-09-27T07:57:14;11.30;99.90
48376;DHT22;34178;50.904;11.560;2022-09-27T07:59:40;11.20;99.90
48376;DHT22;34178;50.904;11.560;2022-09-27T08:02:09;11.30;99.90
48376;DHT22;34178;50.904;11.560;2022-09-27T08:04:37;11.20;99.90
48376;DHT22;34178;50.904;11.560;2022-09-27T08:07:03;11.30;99.90
48376;DHT22;34178;50.904;11.560;2022-09-27T08:09:29;11.40;99.90
48376;DHT22;34178;50.904;11.560;2022-09-27T08:11:55;11.40;99.90
48376;DHT22;34178;50.904;11.560;2022-09-27T08:14:22;11.40;99.90
48376;DHT22;34178;50.904;11.560;2022-09-27T08:16:48;11.50;99.90
48376;DHT22;34178;50.904;11.560;2022-09-27T08:19:15;11.60;99.90
48376;DHT22;34178;50.904;11.560;2022-09-27T08:21:41;11.60;99.90
48376;DHT22;34178;50.904;11.560;2022-09-27T08:24:07;11.60;99.90
48376;DHT22;34178;50.904;11.560;2022-09-27T08:26:32;11.70;99.90
48376;DHT22;34178;50.904;11.560;2022-09-27T08:28:58;11.70;99.90
48376;DHT22;34178;50.904;11.560;2022-09-27T08:31:24;11.80;99.90
48376;DHT22;34178;50.904;11.560;2022-09-27T08:33:50;11.90;99.90
48376;DHT22;34178;50.904;11.560;2022-09-27T08:36:17;12.00;99.90
48376;DHT22;34178;50.904;11.560;2022-09-27T08:38:47;11.90;99.90
48376;DHT22;34178;50.904;11.560;2022-09-27T08:41:39;11.90;99.90
48376;DHT22;34178;50.904;11.560;2022-09-27T08:49:40;11.90;99.90
48376;DHT22;34178;50.904;11.560;2022-09-27T08:52:11;11.90;99.90
48376;DHT22;34178;50.904;11.560;2022-09-27T08:54:38;11.70;99.90
48376;DHT22;34178;50.904;11.560;2022-09-27T08:57:09;11.70;99.90
48376;DHT22;34178;50.904;11.560;2022-09-27T08:59:41;11.80;99.90
48376;DHT22;34178;50.904;11.560;2022-09-27T09:02:17;11.90;99.90
48376;DHT22;34178;50.904;11.560;2022-09-27T09:04:48;12.10;99.90
48376;DHT22;34178;50.904;11.560;2022-09-27T09:10:57;12.00;99.90
48376;DHT22;34178;50.904;11.560;2022-09-27T09:14:16;12.00;99.90
48376;DHT22;34178;50.904;11.560;2022-09-27T09:23:13;12.10;99.90
48376;DHT22;34178;50.904;11.560;2022-09-27T09:31:25;12.00;99.90
48376;DHT22;34178;50.904;11.560;2022-09-27T09:34:00;11.80;99.90
48376;DHT22;34178;50.904;11.560;2022-09-27T09:36:44;11.70;99.90
48376;DHT22;34178;50.904;11.560;2022-09-27T09:39:35;11.50;99.90
48376;DHT22;34178;50.904;11.560;2022-09-27T09:42:10;11.40;99.90
48376;DHT22;34178;50.904;11.560;2022-09-27T09:45:04;11.30;99.90
48376;DHT22;34178;50.904;11.560;2022-09-27T09:47:40;11.30;99.90
48376;DHT22;34178;50.904;11.560;2022-09-27T09:50:24;11.30;99.90
48376;DHT22;34178;50.904;11.560;2022-09-27T09:53:03;11.30;99.90
48376;DHT22;34178;50.904;11.560;2022-09-27T09:55:34;11.20;99.90
48376;DHT22;34178;50.904;11.560;2022-09-27T09:58:22;11.30;99.90
48376;DHT22;34178;50.904;11.560;2022-09-27T10:00:47;11.40;99.90
48376;DHT22;34178;50.904;11.560;2022-09-27T10:03:13;11.50;99.90
48376;DHT22;34178;50.904;11.560;2022-09-27T10:05:42;11.60;99.90
48376;DHT22;34178;50.904;11.560;2022-09-27T10:08:18;11.70;99.90
48376;DHT22;34178;50.904;11.560;2022-09-27T10:10:44;11.70;99.90
48376;DHT22;34178;50.904;11.560;2022-09-27T10:13:15;11.80;99.90
48376;DHT22;34178;50.904;11.560;2022-09-27T10:15:42;11.80;99.90
48376;DHT22;34178;50.904;11.560;2022-09-27T10:18:13;11.80;99.90
48376;DHT22;34178;50.904;11.560;2022-09-27T10:20:49;11.90;99.90
48376;DHT22;34178;50.904;11.560;2022-09-27T10:23:21;11.90;99.90
48376;DHT22;34178;50.904;11.560;2022-09-27T10:28:36;12.00;99.90
48376;DHT22;34178;50.904;11.560;2022-09-27T10:31:13;12.20;99.90
48376;DHT22;34178;50.904;11.560;2022-09-27T10:33:59;12.40;99.90
48376;DHT22;34178;50.904;11.560;2022-09-27T10:36:31;12.50;99.90
48376;DHT22;34178;50.904;11.560;2022-09-27T10:38:59;12.70;99.90
48376;DHT22;34178;50.904;11.560;2022-09-27T10:41:34;12.80;99.90
48376;DHT22;34178;50.904;11.560;2022-09-27T10:46:47;12.90;99.90
48376;DHT22;34178;50.904;11.560;2022-09-27T10:49:29;12.70;99.90
48376;DHT22;34178;50.904;11.560;2022-09-27T10:52:04;12.50;99.90
48376;DHT22;34178;50.904;11.560;2022-09-27T10:54:35;12.30;99.90
48376;DHT22;34178;50.904;11.560;2022-09-27T10:57:04;12.10;99.90
48376;DHT22;34178;50.904;11.560;2022-09-27T10:59:34;12.00;99.90
48376;DHT22;34178;50.904;11.560;2022-09-27T11:02:01;12.30;99.90
48376;DHT22;34178;50.904;11.560;2022-09-27T11:04:32;12.70;99.90
48376;DHT22;34178;50.904;11.560;2022-09-27T11:07:18;13.00;99.90
48376;DHT22;34178;50.904;11.560;2022-09-27T11:09:53;13.40;99.90
48376;DHT22;34178;50.904;11.560;2022-09-27T11:12:20;13.80;99.90
48376;DHT22;34178;50.904;11.560;2022-09-27T11:15:00;13.90;99.90
48376;DHT22;34178;50.904;11.560;2022-09-27T11:20:38;14.10;99.90
48376;DHT22;34178;50.904;11.560;2022-09-27T11:23:34;14.10;99.90
48376;DHT22;34178;50.904;11.560;2022-09-27T11:26:22;13.90;99.90
48376;DHT22;34178;50.904;11.560;2022-09-27T11:31:42;13.30;99.90
48376;DHT22;34178;50.904;11.560;2022-09-27T11:37:44;12.80;99.90
48376;DHT22;34178;50.904;11.560;2022-09-27T11:39:54;12.70;99.90
48376;DHT22;34178;50.904;11.560;2022-09-27T11:53:41;13.60;99.90
48376;DHT22;34178;50.904;11.560;2022-09-27T12:04:56;14.10;99.90
48376;DHT22;34178;50.904;11.560;2022-09-27T12:07:30;14.50;99.90
48376;DHT22;34178;50.904;11.560;2022-09-27T12:10:03;14.70;99.90
48376;DHT22;34178;50.904;11.560;2022-09-27T12:12:35;15.10;99.40
48376;DHT22;34178;50.904;11.560;2022-09-27T12:15:11;15.30;99.70
48376;DHT22;34178;50.904;11.560;2022-09-27T12:17:40;15.20;99.90
48376;DHT22;34178;50.904;11.560;2022-09-27T12:20:16;14.90;98.90
48376;DHT22;34178;50.904;11.560;2022-09-27T12:22:59;14.60;99.30
48376;DHT22;34178;50.904;11.560;2022-09-27T12:25:29;14.30;99.80
48376;DHT22;34178;50.904;11.560;2022-09-27T12:27:57;14.30;99.90
48376;DHT22;34178;50.904;11.560;2022-09-27T12:30:25;14.10;99.90
48376;DHT22;34178;50.904;11.560;2022-09-27T12:33:01;14.50;99.30
48376;DHT22;34178;50.904;11.560;2022-09-27T12:35:50;14.40;98.80
48376;DHT22;34178;50.904;11.560;2022-09-27T12:40:59;15.20;98.60
48376;DHT22;34178;50.904;11.560;2022-09-27T12:43:27;16.10;97.20
48376;DHT22;34178;50.904;11.560;2022-09-27T12:48:45;17.00;94.80
48376;DHT22;34178;50.904;11.560;2022-09-27T12:51:15;16.80;95.50
48376;DHT22;34178;50.904;11.560;2022-09-27T12:59:34;16.40;93.30
48376;DHT22;34178;50.904;11.560;2022-09-27T13:12:58;16.10;94.00
48376;DHT22;34178;50.904;11.560;2022-09-27T13:15:32;16.20;94.20
48376;DHT22;34178;50.904;11.560;2022-09-27T13:17:59;16.50;93.30
48376;DHT22;34178;50.904;11.560;2022-09-27T13:23:04;16.70;94.90
48376;DHT22;34178;50.904;11.560;2022-09-27T13:25:53;17.00;93.80
48376;DHT22;34178;50.904;11.560;2022-09-27T13:39:04;16.30;93.10
48376;DHT22;34178;50.904;11.560;2022-09-27T13:47:31;15.50;94.00
48376;DHT22;34178;50.904;11.560;2022-09-27T13:50:58;15.50;94.40
48376;DHT22;34178;50.904;11.560;2022-09-27T13:53:54;15.30;94.30
48376;DHT22;34178;50.904;11.560;2022-09-27T13:59:11;14.10;97.10
48376;DHT22;34178;50.904;11.560;2022-09-27T14:01:44;14.00;97.70
48376;DHT22;34178;50.904;11.560;2022-09-27T14:04:30;13.90;98.10
48376;DHT22;34178;50.904;11.560;2022-09-27T14:07:01;14.00;98.60
48376;DHT22;34178;50.904;11.560;2022-09-27T14:09:30;13.80;98.70
48376;DHT22;34178;50.904;11.560;2022-09-27T14:12:02;13.60;98.10
48376;DHT22;34178;50.904;11.560;2022-09-27T14:14:30;13.80;97.80
48376;DHT22;34178;50.904;11.560;2022-09-27T14:17:00;13.70;97.00
48376;DHT22;34178;50.904;11.560;2022-09-27T14:19:27;13.70;97.40
48376;DHT22;34178;50.904;11.560;2022-09-27T14:22:14;13.90;97.00
48376;DHT22;34178;50.904;11.560;2022-09-27T14:29:40;13.80;97.50
48376;DHT22;34178;50.904;11.560;2022-09-27T14:32:15;14.10;97.20
48376;DHT22;34178;50.904;11.560;2022-09-27T14:34:41;14.30;97.10
48376;DHT22;34178;50.904;11.560;2022-09-27T14:37:36;14.20;97.80
48376;DHT22;34178;50.904;11.560;2022-09-27T14:40:06;14.20;97.60
48376;DHT22;34178;50.904;11.560;2022-09-27T14:42:43;14.50;98.40
48376;DHT22;34178;50.904;11.560;2022-09-27T14:45:20;14.70;97.20
48376;DHT22;34178;50.904;11.560;2022-09-27T14:47:48;14.30;97.20
48376;DHT22;34178;50.904;11.560;2022-09-27T14:50:23;14.20;97.40
48376;DHT22;34178;50.904;11.560;2022-09-27T14:52:50;14.20;96.80
48376;DHT22;34178;50.904;11.560;2022-09-27T14:55:22;14.30;97.20
48376;DHT22;34178;50.904;11.560;2022-09-27T14:57:56;14.50;96.60
48376;DHT22;34178;50.904;11.560;2022-09-27T15:00:30;14.20;96.70
48376;DHT22;34178;50.904;11.560;2022-09-27T15:02:58;14.30;96.70
48376;DHT22;34178;50.904;11.560;2022-09-27T15:05:30;15.00;95.70
48376;DHT22;34178;50.904;11.560;2022-09-27T15:07:58;15.40;94.50
48376;DHT22;34178;50.904;11.560;2022-09-27T15:10:28;15.60;94.10
48376;DHT22;34178;50.904;11.560;2022-09-27T15:12:56;15.10;94.70
48376;DHT22;34178;50.904;11.560;2022-09-27T15:15:27;14.80;95.40
48376;DHT22;34178;50.904;11.560;2022-09-27T15:17:55;14.30;95.40
48376;DHT22;34178;50.904;11.560;2022-09-27T15:20:27;14.10;95.80
48376;DHT22;34178;50.904;11.560;2022-09-27T15:22:57;14.00;96.00
48376;DHT22;34178;50.904;11.560;2022-09-27T15:30:36;13.50;96.70
48376;DHT22;34178;50.904;11.560;2022-09-27T15:33:02;13.50;96.80
48376;DHT22;34178;50.904;11.560;2022-09-27T15:35:31;13.60;96.70
48376;DHT22;34178;50.904;11.560;2022-09-27T15:38:25;13.50;96.80
48376;DHT22;34178;50.904;11.560;2022-09-27T15:43:22;13.40;97.10
48376;DHT22;34178;50.904;11.560;2022-09-27T15:45:53;13.60;97.00
48376;DHT22;34178;50.904;11.560;2022-09-27T15:48:19;13.70;96.70
48376;DHT22;34178;50.904;11.560;2022-09-27T15:50:46;13.60;97.20
48376;DHT22;34178;50.904;11.560;2022-09-27T15:56:02;13.50;97.00
48376;DHT22;34178;50.904;11.560;2022-09-27T15:58:29;13.20;97.40
48376;DHT22;34178;50.904;11.560;2022-09-27T16:01:00;13.10;97.70
48376;DHT22;34178;50.904;11.560;2022-09-27T16:03:33;13.20;97.60
48376;DHT22;34178;50.904;11.560;2022-09-27T16:06:00;13.20;98.20
48376;DHT22;34178;50.904;11.560;2022-09-27T16:08:26;13.20;98.40
48376;DHT22;34178;50.904;11.560;2022-09-27T16:10:54;13.20;98.60
48376;DHT22;34178;50.904;11.560;2022-09-27T16:13:21;13.30;98.70
48376;DHT22;34178;50.904;11.560;2022-09-27T16:15:47;13.30;99.00
48376;DHT22;34178;50.904;11.560;2022-09-27T16:18:13;13.30;98.60
48376;DHT22;34178;50.904;11.560;2022-09-27T16:20:39;13.20;99.10
48376;DHT22;34178;50.904;11.560;2022-09-27T16:23:05;13.10;99.50
48376;DHT22;34178;50.904;11.560;2022-09-27T16:25:31;12.70;99.90
48376;DHT22;34178;50.904;11.560;2022-09-27T16:27:58;12.60;99.90
48376;DHT22;34178;50.904;11.560;2022-09-27T16:30:24;12.60;99.90
48376;DHT22;34178;50.904;11.560;2022-09-27T16:32:51;12.50;99.90
48376;DHT22;34178;50.904;11.560;2022-09-27T16:35:18;12.40;99.90
48376;DHT22;34178;50.904;11.560;2022-09-27T16:37:45;12.40;99.90
48376;DHT22;34178;50.904;11.560;2022-09-27T16:40:12;12.40;99.90
48376;DHT22;34178;50.904;11.560;2022-09-27T16:42:38;12.40;99.90
48376;DHT22;34178;50.904;11.560;2022-09-27T16:45:05;12.40;99.90
48376;DHT22;34178;50.904;11.560;2022-09-27T16:47:32;12.40;99.90
48376;DHT22;34178;50.904;11.560;2022-09-27T16:49:57;12.30;99.90
48376;DHT22;34178;50.904;11.560;2022-09-27T16:52:41;12.20;99.90
48376;DHT22;34178;50.904;11.560;2022-09-27T16:55:12;12.10;99.90
48376;DHT22;34178;50.904;11.560;2022-09-27T16:57:38;11.90;99.90
48376;DHT22;34178;50.904;11.560;2022-09-27T17:00:05;11.80;99.90
48376;DHT22;34178;50.904;11.560;2022-09-27T17:02:30;11.80;99.90
48376;DHT22;34178;50.904;11.560;2022-09-27T17:04:57;11.80;99.90
48376;DHT22;34178;50.904;11.560;2022-09-27T17:07:23;11.80;99.90
48376;DHT22;34178;50.904;11.560;2022-09-27T17:09:49;11.80;99.90
48376;DHT22;34178;50.904;11.560;2022-09-27T17:12:15;11.70;99.90
48376;DHT22;34178;50.904;11.560;2022-09-27T17:14:41;11.60;99.90
48376;DHT22;34178;50.904;11.560;2022-09-27T17:17:07;11.60;99.90
48376;DHT22;34178;50.904;11.560;2022-09-27T17:19:33;11.60;99.90
48376;DHT22;34178;50.904;11.560;2022-09-27T17:21:59;11.50;99.90
48376;DHT22;34178;50.904;11.560;2022-09-27T17:24:26;11.50;99.90
48376;DHT22;34178;50.904;11.560;2022-09-27T17:26:51;11.50;99.90
48376;DHT22;34178;50.904;11.560;2022-09-27T17:29:17;11.40;99.90
48376;DHT22;34178;50.904;11.560;2022-09-27T17:31:43;11.30;99.90
48376;DHT22;34178;50.904;11.560;2022-09-27T17:34:10;11.20;99.90
48376;DHT22;34178;50.904;11.560;2022-09-27T17:36:39;11.20;99.90
48376;DHT22;34178;50.904;11.560;2022-09-27T17:39:06;11.20;99.90
48376;DHT22;34178;50.904;11.560;2022-09-27T17:41:34;11.30;99.90
48376;DHT22;34178;50.904;11.560;2022-09-27T17:44:01;11.30;99.90
48376;DHT22;34178;50.904;11.560;2022-09-27T17:46:29;11.30;99.90
48376;DHT22;34178;50.904;11.560;2022-09-27T17:48:55;11.40;99.90
48376;DHT22;34178;50.904;11.560;2022-09-27T17:51:41;11.30;99.90
48376;DHT22;34178;50.904;11.560;2022-09-27T17:54:08;11.30;99.90
48376;DHT22;34178;50.904;11.560;2022-09-27T17:56:36;11.30;99.90
48376;DHT22;34178;50.904;11.560;2022-09-27T17:59:02;11.30;99.90
48376;DHT22;34178;50.904;11.560;2022-09-27T18:01:28;11.20;99.90
48376;DHT22;34178;50.904;11.560;2022-09-27T18:03:55;11.30;99.90
48376;DHT22;34178;50.904;11.560;2022-09-27T18:06:22;11.10;99.90
48376;DHT22;34178;50.904;11.560;2022-09-27T18:08:48;11.00;99.90
48376;DHT22;34178;50.904;11.560;2022-09-27T18:11:16;10.90;99.90
48376;DHT22;34178;50.904;11.560;2022-09-27T18:13:43;10.90;99.90
48376;DHT22;34178;50.904;11.560;2022-09-27T18:16:14;10.90;99.90
48376;DHT22;34178;50.904;11.560;2022-09-27T18:18:42;10.70;99.90
48376;DHT22;34178;50.904;11.560;2022-09-27T18:21:10;10.70;99.90
48376;DHT22;34178;50.904;11.560;2022-09-27T18:23:39;10.60;99.90
48376;DHT22;34178;50.904;11.560;2022-09-27T18:26:05;10.60;99.90